Time;durP1;ratioP1;P1;durP2;ratioP2;P2;SDS_P1;SDS_P2;PMS_P1;PMS_P2;Temp;Humidity;BMP_temperature;BMP_pressure;BME280_temperature;BME280_humidity;BME280_pressure;Samples;Min_cycle;Max_cycle;Signal;HPM_P1;HPM_P2
2022/12/04 00:00:15;;;;;;;18.27;12.98;;;5.40;99.90;;;;;;5042221;28;20074;-68
2022/12/04 00:02:40;;;;;;;20.70;13.57;;;5.40;99.90;;;;;;5039915;28;20037;-68
2022/12/04 00:05:08;;;;;;;17.77;13.25;;;5.40;99.90;;;;;;5042469;28;20121;-68
2022/12/04 00:07:34;;;;;;;18.48;12.23;;;5.50;99.90;;;;;;5045258;28;20120;-69
2022/12/04 00:10:00;;;;;;;17.52;12.30;;;5.50;99.90;;;;;;5045004;28;20075;-68
2022/12/04 00:12:26;;;;;;;18.23;12.98;;;5.50;99.90;;;;;;5033740;28;21160;-69
2022/12/04 00:14:52;;;;;;;16.65;12.10;;;5.60;99.90;;;;;;5047706;28;20092;-69
2022/12/04 00:17:18;;;;;;;15.27;11.57;;;5.60;99.90;;;;;;5044524;28;20048;-68
2022/12/04 00:19:43;;;;;;;17.95;12.57;;;5.60;99.90;;;;;;5041031;28;20028;-68
2022/12/04 00:22:09;;;;;;;16.88;11.85;;;5.60;99.90;;;;;;5045258;28;20143;-68
2022/12/04 00:24:34;;;;;;;17.13;11.70;;;5.70;99.90;;;;;;5045197;28;20485;-68
2022/12/04 00:27:00;;;;;;;15.38;11.40;;;5.70;99.90;;;;;;5042727;28;20066;-68
2022/12/04 00:29:25;;;;;;;15.32;11.02;;;5.70;99.90;;;;;;5037030;28;20037;-69
2022/12/04 00:31:51;;;;;;;16.83;11.43;;;5.70;99.90;;;;;;5039768;28;20530;-66
2022/12/04 00:34:17;;;;;;;15.95;12.00;;;5.70;99.90;;;;;;5047841;28;20151;-69
2022/12/04 00:36:43;;;;;;;15.95;12.15;;;5.70;99.90;;;;;;5043505;28;20509;-69
2022/12/04 00:39:08;;;;;;;16.52;12.30;;;5.70;99.90;;;;;;5044553;28;20119;-69
2022/12/04 00:41:34;;;;;;;17.90;12.25;;;5.70;99.90;;;;;;5036571;28;20492;-69
2022/12/04 00:44:01;;;;;;;18.73;11.82;;;5.80;99.90;;;;;;5048233;28;20029;-69
2022/12/04 00:46:27;;;;;;;17.90;11.82;;;5.80;99.90;;;;;;5044625;28;20028;-69
2022/12/04 00:48:53;;;;;;;13.77;10.68;;;5.80;99.90;;;;;;5045802;28;20028;-69
2022/12/04 00:51:21;;;;;;;17.88;11.63;;;5.90;99.90;;;;;;5045962;28;20056;-69
2022/12/04 00:53:48;;;;;;;16.95;12.50;;;5.80;99.90;;;;;;5041762;28;20389;-69
2022/12/04 00:56:17;;;;;;;15.82;12.10;;;5.80;99.90;;;;;;5040618;28;20036;-68
2022/12/04 00:58:43;;;;;;;16.85;11.85;;;5.80;99.90;;;;;;5039775;28;20124;-68
2022/12/04 01:01:14;;;;;;;16.45;11.05;;;5.90;99.90;;;;;;5035464;28;20130;-68
2022/12/04 01:03:40;;;;;;;15.27;11.13;;;5.90;99.90;;;;;;5068402;28;20025;-65
2022/12/04 01:06:06;;;;;;;16.65;11.73;;;5.90;99.90;;;;;;5045721;28;20024;-66
2022/12/04 01:08:32;;;;;;;17.75;12.77;;;5.90;99.90;;;;;;5049426;28;20040;-69
2022/12/04 01:10:58;;;;;;;17.08;12.52;;;5.90;99.90;;;;;;5045617;28;20589;-70
2022/12/04 01:13:25;;;;;;;14.68;11.40;;;6.00;99.90;;;;;;5039233;28;20033;-70
2022/12/04 01:15:50;;;;;;;15.90;11.90;;;6.00;99.90;;;;;;5043330;28;20040;-77
2022/12/04 01:18:16;;;;;;;15.75;11.90;;;6.00;99.90;;;;;;5043043;28;20031;-77
2022/12/04 01:20:47;;;;;;;14.57;11.40;;;6.10;99.90;;;;;;5044454;28;20064;-81
2022/12/04 01:23:13;;;;;;;16.33;11.60;;;6.00;99.90;;;;;;5048013;28;20060;-80
2022/12/04 01:25:39;;;;;;;15.90;11.48;;;5.90;99.90;;;;;;5048112;28;20887;-80
2022/12/04 01:28:04;;;;;;;16.60;11.57;;;5.90;99.90;;;;;;5042974;28;20029;-79
2022/12/04 01:30:30;;;;;;;16.08;10.95;;;5.90;99.90;;;;;;5047806;28;20025;-78
2022/12/04 01:32:55;;;;;;;16.30;11.63;;;5.90;99.90;;;;;;5043974;28;20119;-78
2022/12/04 01:35:21;;;;;;;17.55;11.68;;;5.90;99.90;;;;;;5045131;28;20035;-78
2022/12/04 01:37:46;;;;;;;16.10;12.00;;;5.90;99.90;;;;;;5043784;28;20071;-75
2022/12/04 01:40:13;;;;;;;16.25;11.38;;;5.90;99.90;;;;;;5044962;28;20029;-78
2022/12/04 01:42:39;;;;;;;15.68;11.55;;;5.90;99.90;;;;;;5041979;28;20826;-77
2022/12/04 01:45:29;;;;;;;15.32;11.00;;;5.90;99.90;;;;;;5050224;28;20117;-76
2022/12/04 01:48:01;;;;;;;16.77;11.68;;;5.90;99.90;;;;;;5046789;28;20517;-80
2022/12/04 01:50:28;;;;;;;16.83;11.98;;;6.00;99.90;;;;;;5042944;28;20029;-79
2022/12/04 01:52:53;;;;;;;17.90;12.05;;;6.00;99.90;;;;;;5048459;28;20060;-77
2022/12/04 01:55:19;;;;;;;16.38;11.75;;;6.10;99.90;;;;;;5044409;28;20358;-77
2022/12/04 01:57:45;;;;;;;16.05;11.68;;;6.10;99.90;;;;;;5043932;28;20052;-77
2022/12/04 02:00:13;;;;;;;14.75;11.90;;;6.00;99.90;;;;;;5045809;28;20028;-77
2022/12/04 02:02:41;;;;;;;16.40;11.15;;;6.00;99.90;;;;;;5042685;28;20408;-75
2022/12/04 02:05:11;;;;;;;18.83;12.05;;;5.90;99.90;;;;;;5040002;28;20065;-75
2022/12/04 02:07:38;;;;;;;15.02;11.23;;;5.90;99.90;;;;;;5045056;28;20116;-76
2022/12/04 02:10:07;;;;;;;17.45;12.23;;;5.90;99.90;;;;;;5044201;28;20074;-75
2022/12/04 02:12:48;;;;;;;16.50;12.38;;;5.90;99.90;;;;;;5043545;28;20029;-75
2022/12/04 02:15:53;;;;;;;15.30;11.98;;;5.90;99.90;;;;;;5041643;28;20380;-76
2022/12/04 02:18:34;;;;;;;15.10;11.40;;;6.10;99.90;;;;;;5040088;28;20135;-79
2022/12/04 02:21:22;;;;;;;14.32;11.60;;;6.20;99.90;;;;;;5044314;28;20401;-79
2022/12/04 02:24:16;;;;;;;16.63;11.93;;;6.30;99.90;;;;;;5045903;28;20548;-76
2022/12/04 02:26:54;;;;;;;17.48;11.68;;;6.30;99.90;;;;;;5041044;28;20025;-75
2022/12/04 02:29:35;;;;;;;15.15;11.25;;;6.30;99.90;;;;;;5039063;28;20048;-76
2022/12/04 02:32:18;;;;;;;15.57;11.40;;;6.20;99.90;;;;;;5036034;28;20036;-76
2022/12/04 02:34:57;;;;;;;17.00;11.55;;;6.20;99.90;;;;;;5041421;28;22787;-76
2022/12/04 02:37:31;;;;;;;16.30;12.13;;;6.20;99.90;;;;;;5039242;28;20045;-75
2022/12/04 02:40:15;;;;;;;18.80;11.82;;;6.20;99.90;;;;;;5042186;28;20032;-75
2022/12/04 02:42:48;;;;;;;15.35;11.80;;;6.20;99.90;;;;;;5038647;28;20029;-76
2022/12/04 02:45:25;;;;;;;16.48;12.02;;;6.20;99.90;;;;;;5040611;28;20027;-76
2022/12/04 02:47:52;;;;;;;17.02;12.35;;;6.20;99.90;;;;;;5056035;28;20063;-75
2022/12/04 02:50:21;;;;;;;15.20;11.27;;;6.20;99.90;;;;;;5041118;28;20035;-75
2022/12/04 02:52:54;;;;;;;13.95;10.43;;;6.20;99.90;;;;;;5045920;28;20101;-75
2022/12/04 02:55:30;;;;;;;15.30;11.75;;;6.20;99.90;;;;;;5034370;28;20035;-74
2022/12/04 02:58:01;;;;;;;14.27;10.82;;;6.20;99.90;;;;;;5045782;28;20044;-75
2022/12/04 03:00:29;;;;;;;16.02;11.15;;;6.20;99.90;;;;;;5040864;28;20142;-75
2022/12/04 03:03:02;;;;;;;14.20;10.45;;;6.10;99.90;;;;;;5038164;28;20021;-75
2022/12/04 03:05:48;;;;;;;13.40;10.90;;;6.00;99.90;;;;;;5037948;28;20032;-75
2022/12/04 03:08:20;;;;;;;14.52;11.50;;;6.00;99.90;;;;;;5040554;28;20052;-75
2022/12/04 03:10:48;;;;;;;;;;;6.00;99.90;;;;;;5039233;28;20052;-75
2022/12/04 03:13:21;;;;;;;13.18;10.07;;;6.00;99.90;;;;;;5042374;28;19916;-75
2022/12/04 03:16:03;;;;;;;15.18;10.70;;;6.10;99.90;;;;;;5036946;28;20143;-75
2022/12/04 03:18:55;;;;;;;17.25;11.80;;;6.00;99.90;;;;;;5041113;28;20119;-75
2022/12/04 03:21:25;;;;;;;16.65;11.30;;;6.00;99.90;;;;;;5035174;28;20040;-75
2022/12/04 03:24:12;;;;;;;14.55;10.82;;;6.00;99.90;;;;;;5037738;28;20025;-75
2022/12/04 03:26:41;;;;;;;13.25;10.55;;;6.00;99.90;;;;;;5039490;28;20024;-75
2022/12/04 03:29:18;;;;;;;14.82;10.85;;;6.00;99.90;;;;;;5041308;28;20028;-75
2022/12/04 03:32:09;;;;;;;15.48;11.27;;;6.00;99.90;;;;;;5036473;28;20021;-75
2022/12/04 03:34:57;;;;;;;14.38;10.80;;;6.00;99.90;;;;;;5026744;28;20048;-75
2022/12/04 03:37:35;;;;;;;16.33;12.13;;;6.00;99.90;;;;;;5036661;28;20040;-75
2022/12/04 03:40:35;;;;;;;12.65;9.90;;;6.00;99.90;;;;;;5041451;28;20056;-75
2022/12/04 03:43:14;;;;;;;15.02;11.60;;;6.10;99.90;;;;;;5041444;28;20059;-75
2022/12/04 03:45:55;;;;;;;15.65;10.98;;;6.10;99.90;;;;;;5034723;28;20040;-74
2022/12/04 03:48:31;;;;;;;18.25;13.05;;;6.10;99.90;;;;;;5037463;28;20429;-75
2022/12/04 03:51:03;;;;;;;14.82;11.88;;;6.20;99.90;;;;;;5038999;28;20111;-75
2022/12/04 03:53:32;;;;;;;17.83;12.95;;;6.20;99.90;;;;;;5036021;28;20068;-75
2022/12/04 03:56:02;;;;;;;15.27;11.20;;;6.20;99.90;;;;;;5040973;28;20487;-75
2022/12/04 03:58:31;;;;;;;17.23;13.13;;;6.30;99.90;;;;;;5038716;28;20434;-75
2022/12/04 04:01:02;;;;;;;16.52;12.98;;;6.30;99.90;;;;;;5032780;28;20040;-75
2022/12/04 04:03:34;;;;;;;19.30;12.07;;;6.30;99.90;;;;;;5038604;28;20051;-75
2022/12/04 04:06:23;;;;;;;17.60;13.15;;;6.30;99.90;;;;;;5037947;28;21541;-75
2022/12/04 04:08:54;;;;;;;15.50;12.35;;;6.30;99.90;;;;;;5038139;28;20040;-75
2022/12/04 04:12:27;;;;;;;17.42;13.20;;;6.20;99.90;;;;;;5038846;28;23560;-75
2022/12/04 04:26:27;;;;;;;18.48;13.98;;;6.40;99.90;;;;;;5038992;28;20039;-75
2022/12/04 04:28:53;;;;;;;17.35;13.02;;;6.40;99.90;;;;;;5043247;28;20036;-75
2022/12/04 04:31:27;;;;;;;21.38;15.05;;;6.30;99.90;;;;;;5041883;28;20060;-75
2022/12/04 04:34:11;;;;;;;20.15;14.73;;;6.40;99.90;;;;;;5044520;28;20044;-75
2022/12/04 04:36:39;;;;;;;22.48;13.93;;;6.40;99.90;;;;;;5047732;28;23113;-74
2022/12/04 04:39:20;;;;;;;20.35;15.18;;;6.50;99.90;;;;;;5039636;28;20036;-74
2022/12/04 04:42:03;;;;;;;18.52;14.70;;;6.50;99.90;;;;;;5041015;28;20028;-75
2022/12/04 04:44:36;;;;;;;17.85;13.90;;;6.50;99.90;;;;;;5041465;28;20041;-74
2022/12/04 04:47:06;;;;;;;18.80;14.35;;;6.50;99.90;;;;;;5044923;28;20039;-74
2022/12/04 04:49:33;;;;;;;17.25;13.85;;;6.40;99.90;;;;;;5043958;28;20032;-74
2022/12/04 04:52:01;;;;;;;19.13;14.57;;;6.40;99.90;;;;;;5042876;28;20029;-75
2022/12/04 04:54:28;;;;;;;19.40;14.80;;;6.40;99.90;;;;;;5042974;28;20761;-75
2022/12/04 04:56:54;;;;;;;23.23;15.63;;;6.40;99.90;;;;;;5045077;28;20044;-75
2022/12/04 04:59:19;;;;;;;20.38;15.93;;;6.40;99.90;;;;;;5042616;28;20039;-75
2022/12/04 05:01:46;;;;;;;20.58;15.43;;;6.40;99.90;;;;;;5040774;28;20033;-75
2022/12/04 05:04:11;;;;;;;22.80;17.05;;;6.40;99.90;;;;;;5043140;28;20037;-75
2022/12/04 05:06:37;;;;;;;21.33;17.38;;;6.50;99.90;;;;;;5040491;28;20083;-75
2022/12/04 05:09:03;;;;;;;20.45;16.27;;;6.50;99.90;;;;;;5042290;28;20497;-75
2022/12/04 05:11:28;;;;;;;20.08;15.57;;;6.50;99.90;;;;;;5042948;28;20086;-75
2022/12/04 05:13:54;;;;;;;24.83;18.77;;;6.60;99.90;;;;;;5044804;28;20060;-75
2022/12/04 05:16:20;;;;;;;23.27;17.83;;;6.60;99.90;;;;;;5036297;28;20134;-75
2022/12/04 05:19:52;;;;;;;22.98;17.73;;;6.60;99.90;;;;;;5049798;28;20041;-75
2022/12/04 05:21:32;;;;;;;22.58;17.70;;;6.60;99.90;;;;;;5042079;28;20040;-74
2022/12/04 05:23:57;;;;;;;24.48;18.60;;;6.60;99.90;;;;;;5044097;28;20137;-75
2022/12/04 05:26:23;;;;;;;24.27;17.42;;;6.60;99.90;;;;;;5042869;28;20040;-76
2022/12/04 05:28:49;;;;;;;23.45;17.42;;;6.60;99.90;;;;;;5043401;28;20051;-75
2022/12/04 05:31:15;;;;;;;35.42;22.52;;;6.60;99.90;;;;;;5038873;28;20032;-75
2022/12/04 05:33:40;;;;;;;29.60;19.65;;;6.60;99.90;;;;;;5047075;28;20587;-76
2022/12/04 05:36:09;;;;;;;28.05;19.48;;;6.70;99.90;;;;;;5037577;28;20029;-75
2022/12/04 05:38:35;;;;;;;25.83;18.90;;;6.60;99.90;;;;;;5041906;28;20036;-75
2022/12/04 05:41:03;;;;;;;25.88;18.80;;;6.60;99.90;;;;;;5042695;28;20032;-75
2022/12/04 05:43:29;;;;;;;26.77;18.73;;;6.60;99.90;;;;;;5043197;28;20043;-76
2022/12/04 05:45:59;;;;;;;30.35;21.15;;;6.70;99.90;;;;;;5043876;28;20083;-75
2022/12/04 05:48:24;;;;;;;30.08;20.17;;;6.60;99.90;;;;;;5043321;28;20036;-75
2022/12/04 05:50:50;;;;;;;35.08;22.55;;;6.60;99.90;;;;;;5047359;28;20064;-76
2022/12/04 05:53:18;;;;;;;32.42;20.45;;;6.60;99.90;;;;;;5044206;28;20036;-75
2022/12/04 05:55:44;;;;;;;33.90;21.05;;;6.60;99.90;;;;;;5041980;28;20032;-75
2022/12/04 05:58:09;;;;;;;24.88;18.35;;;6.60;99.90;;;;;;5045994;28;20041;-75
2022/12/04 06:00:35;;;;;;;21.73;16.50;;;6.60;99.90;;;;;;5044934;28;20116;-75
2022/12/04 06:03:00;;;;;;;20.15;16.33;;;6.60;99.90;;;;;;5040767;28;20160;-75
2022/12/04 06:05:26;;;;;;;22.00;16.83;;;6.60;99.90;;;;;;5039948;28;20009;-75
2022/12/04 06:07:52;;;;;;;21.67;16.83;;;6.60;99.90;;;;;;5040558;28;20043;-75
2022/12/04 06:10:17;;;;;;;23.08;16.25;;;6.50;99.90;;;;;;5040652;28;20539;-74
2022/12/04 06:12:43;;;;;;;25.70;17.45;;;6.60;99.90;;;;;;5036292;28;20044;-75
2022/12/04 06:15:09;;;;;;;20.65;16.40;;;6.60;99.90;;;;;;5040791;28;20036;-74
2022/12/04 06:17:34;;;;;;;19.85;15.48;;;6.60;99.90;;;;;;5036401;28;20669;-74
2022/12/04 06:20:00;;;;;;;22.42;15.98;;;6.60;99.90;;;;;;5047515;28;20020;-74
2022/12/04 06:22:25;;;;;;;22.02;17.10;;;6.50;99.90;;;;;;5042194;28;20040;-74
2022/12/04 06:24:51;;;;;;;22.70;15.93;;;6.50;99.90;;;;;;5041938;28;20067;-74
2022/12/04 06:27:17;;;;;;;21.30;16.50;;;6.40;99.90;;;;;;5042428;28;20037;-74
2022/12/04 06:29:42;;;;;;;20.73;16.50;;;6.40;99.90;;;;;;5042678;28;20032;-74
2022/12/04 06:32:08;;;;;;;21.05;16.50;;;6.40;99.90;;;;;;5038508;28;20032;-74
2022/12/04 06:34:34;;;;;;;21.48;16.75;;;6.50;99.90;;;;;;5039548;28;20029;-75
2022/12/04 06:36:59;;;;;;;21.10;16.52;;;6.60;99.90;;;;;;5038021;28;20044;-74
2022/12/04 06:39:25;;;;;;;22.02;16.83;;;6.50;99.90;;;;;;5041320;28;20025;-74
2022/12/04 06:41:51;;;;;;;24.08;16.60;;;6.50;99.90;;;;;;5041373;28;20041;-74
2022/12/04 06:44:16;;;;;;;22.35;16.17;;;6.50;99.90;;;;;;5041176;28;20032;-74
2022/12/04 06:46:42;;;;;;;25.08;17.50;;;6.50;99.90;;;;;;5041126;28;20121;-74
2022/12/04 06:49:09;;;;;;;20.63;15.55;;;6.50;99.90;;;;;;5040181;28;20457;-74
2022/12/04 06:51:36;;;;;;;23.92;17.08;;;6.50;99.90;;;;;;5044694;28;20367;-74
2022/12/04 06:54:02;;;;;;;20.23;15.73;;;6.40;99.90;;;;;;5040051;28;20024;-74
2022/12/04 06:56:30;;;;;;;22.02;16.58;;;6.50;99.90;;;;;;5037164;28;20078;-74
2022/12/04 06:58:58;;;;;;;21.15;16.38;;;6.50;99.90;;;;;;5038872;28;20103;-74
2022/12/04 07:01:26;;;;;;;21.63;16.55;;;6.50;99.90;;;;;;5035680;28;20036;-74
2022/12/04 07:03:52;;;;;;;21.48;16.33;;;6.50;99.90;;;;;;5038183;28;20035;-74
2022/12/04 07:06:27;;;;;;;18.67;14.52;;;6.60;99.90;;;;;;5035307;28;20060;-74
2022/12/04 07:09:05;;;;;;;20.63;15.55;;;6.60;99.90;;;;;;5039781;28;20032;-74
2022/12/04 07:11:32;;;;;;;21.35;16.38;;;6.70;99.90;;;;;;5039653;28;20034;-75
2022/12/04 07:13:58;;;;;;;20.92;16.42;;;6.70;99.90;;;;;;5042113;28;20195;-74
2022/12/04 07:16:25;;;;;;;21.88;17.40;;;6.60;99.90;;;;;;5055668;28;20052;-75
2022/12/04 07:18:55;;;;;;;23.65;16.75;;;6.50;99.90;;;;;;5035122;28;20032;-74
2022/12/04 07:21:23;;;;;;;23.15;16.58;;;6.60;99.90;;;;;;5046326;28;20081;-74
2022/12/04 07:23:50;;;;;;;20.17;15.05;;;6.70;99.90;;;;;;5042821;28;20482;-75
2022/12/04 07:26:16;;;;;;;22.40;16.63;;;6.80;99.90;;;;;;5039360;28;20070;-74
2022/12/04 07:28:44;;;;;;;23.67;17.13;;;6.80;99.90;;;;;;5043460;28;20120;-75
2022/12/04 07:31:12;;;;;;;23.50;16.95;;;6.70;99.90;;;;;;5036548;28;20028;-74
2022/12/04 07:33:38;;;;;;;91.95;56.35;;;6.70;99.90;;;;;;5036058;28;20041;-74
2022/12/04 07:36:07;;;;;;;22.65;18.55;;;6.80;99.90;;;;;;5027574;28;20061;-74
2022/12/04 07:38:33;;;;;;;22.02;16.33;;;6.80;99.90;;;;;;5037090;28;20045;-74
2022/12/04 07:41:01;;;;;;;20.80;15.48;;;6.80;99.90;;;;;;5040651;28;20031;-74
2022/12/04 07:43:28;;;;;;;21.17;17.10;;;6.80;99.90;;;;;;5028680;28;20059;-72
2022/12/04 07:45:54;;;;;;;19.92;15.40;;;6.80;99.90;;;;;;5040911;28;20033;-73
2022/12/04 07:48:20;;;;;;;23.77;18.40;;;6.80;99.90;;;;;;5031592;28;22677;-74
2022/12/04 07:50:45;;;;;;;23.48;17.60;;;6.90;99.90;;;;;;5041634;28;20037;-74
2022/12/04 07:53:11;;;;;;;21.60;16.60;;;6.90;99.90;;;;;;5046400;28;20485;-76
2022/12/04 07:55:37;;;;;;;20.42;16.23;;;6.90;99.90;;;;;;5039008;28;20039;-76
2022/12/04 07:58:02;;;;;;;23.83;16.50;;;7.00;99.90;;;;;;5040226;28;20303;-75
2022/12/04 08:00:28;;;;;;;24.38;17.52;;;7.00;99.90;;;;;;5046965;28;20017;-69
2022/12/04 08:02:54;;;;;;;21.38;16.48;;;6.90;99.90;;;;;;5043379;28;20043;-68
2022/12/04 08:05:20;;;;;;;23.05;17.05;;;6.90;99.90;;;;;;5038030;28;20025;-68
2022/12/04 08:07:46;;;;;;;21.85;16.05;;;6.80;99.90;;;;;;5043575;28;20036;-68
2022/12/04 08:10:12;;;;;;;20.20;15.98;;;6.80;99.90;;;;;;5041860;28;20048;-68
2022/12/04 08:12:37;;;;;;;23.98;16.85;;;6.90;99.90;;;;;;5045791;28;20113;-68
2022/12/04 08:15:05;;;;;;;21.35;17.35;;;6.90;99.90;;;;;;5042875;28;20036;-68
2022/12/04 08:17:31;;;;;;;22.55;16.05;;;7.00;99.90;;;;;;5038124;28;20160;-68
2022/12/04 08:19:56;;;;;;;23.55;17.50;;;7.00;99.90;;;;;;5036283;28;20043;-68
2022/12/04 08:22:22;;;;;;;23.75;18.05;;;7.10;99.90;;;;;;5048323;28;20036;-68
2022/12/04 08:24:48;;;;;;;25.75;18.85;;;7.00;99.90;;;;;;5039958;28;20028;-68
2022/12/04 08:27:14;;;;;;;24.60;19.35;;;7.10;99.90;;;;;;5050494;28;20029;-69
2022/12/04 08:29:39;;;;;;;20.63;16.80;;;7.20;99.90;;;;;;5046703;28;20905;-69
2022/12/04 08:32:05;;;;;;;26.40;18.58;;;7.30;99.90;;;;;;5048165;28;20029;-69
2022/12/04 08:34:31;;;;;;;22.10;16.92;;;7.40;99.90;;;;;;5045668;28;20028;-69
2022/12/04 08:36:56;;;;;;;22.08;16.25;;;7.40;99.90;;;;;;5047590;28;20039;-69
2022/12/04 08:39:22;;;;;;;21.63;16.73;;;7.50;99.90;;;;;;5039136;28;20043;-69
2022/12/04 08:41:48;;;;;;;23.42;18.73;;;7.40;99.90;;;;;;5044730;28;20021;-69
2022/12/04 08:44:13;;;;;;;20.05;14.95;;;7.50;99.90;;;;;;5047207;28;20058;-69
2022/12/04 08:46:39;;;;;;;21.27;15.18;;;7.40;99.90;;;;;;5042970;28;20037;-69
2022/12/04 08:49:05;;;;;;;22.33;16.67;;;7.50;99.90;;;;;;5047289;28;20033;-69
2022/12/04 08:51:33;;;;;;;20.25;15.43;;;7.50;99.90;;;;;;5043083;28;20133;-70
2022/12/04 08:54:05;;;;;;;19.90;15.80;;;7.50;99.90;;;;;;5050219;28;20020;-69
2022/12/04 08:56:31;;;;;;;18.05;15.05;;;7.70;99.90;;;;;;5043871;28;20037;-69
2022/12/04 08:58:57;;;;;;;22.05;14.77;;;7.70;99.90;;;;;;5043048;28;20040;-69
2022/12/04 09:01:24;;;;;;;20.88;15.65;;;7.80;99.90;;;;;;5044724;28;20029;-65
2022/12/04 09:03:50;;;;;;;20.05;15.07;;;7.90;99.90;;;;;;5048996;28;20098;-70
2022/12/04 09:06:17;;;;;;;18.70;15.18;;;7.90;99.90;;;;;;5045882;28;20032;-69
2022/12/04 09:08:42;;;;;;;17.33;14.10;;;7.90;99.90;;;;;;5045719;28;20032;-70
2022/12/04 09:11:14;;;;;;;18.88;14.48;;;8.00;99.90;;;;;;5047642;28;20525;-70
2022/12/04 09:13:41;;;;;;;21.15;15.65;;;8.00;99.90;;;;;;5038997;28;20059;-70
2022/12/04 09:16:09;;;;;;;19.95;15.18;;;8.00;99.90;;;;;;5045790;28;20045;-70
2022/12/04 09:18:36;;;;;;;19.83;15.02;;;8.00;99.90;;;;;;5045009;28;20033;-71
2022/12/04 09:21:04;;;;;;;19.70;15.20;;;8.00;99.90;;;;;;5052145;28;20029;-70
2022/12/04 09:23:30;;;;;;;23.65;17.98;;;7.90;99.90;;;;;;5049838;28;20029;-70
2022/12/04 09:25:56;;;;;;;19.55;15.98;;;7.90;99.90;;;;;;5041571;28;20032;-70
2022/12/04 09:28:21;;;;;;;20.27;16.02;;;7.90;99.90;;;;;;5043757;28;20036;-70
2022/12/04 09:31:02;;;;;;;30.55;27.27;;;7.90;99.90;;;;;;5034622;28;20028;-70
2022/12/04 09:33:29;;;;;;;22.02;16.58;;;8.00;99.90;;;;;;5028565;28;20580;-70
2022/12/04 09:35:57;;;;;;;34.45;15.95;;;8.00;99.90;;;;;;5035240;28;20116;-70
2022/12/04 09:38:23;;;;;;;20.50;14.88;;;8.00;99.90;;;;;;5029697;28;20124;-70
2022/12/04 09:41:16;;;;;;;23.40;16.30;;;8.10;99.90;;;;;;5043736;28;20035;-71
2022/12/04 09:43:46;;;;;;;19.48;15.13;;;8.10;99.90;;;;;;5043277;28;20036;-71
2022/12/04 09:46:24;;;;;;;23.00;16.23;;;8.10;99.90;;;;;;5041235;28;20124;-71
2022/12/04 09:48:51;;;;;;;20.25;15.57;;;8.10;99.90;;;;;;5042873;28;20029;-71
2022/12/04 09:51:21;;;;;;;24.63;15.80;;;8.10;99.90;;;;;;5034133;28;20044;-70
2022/12/04 09:54:18;;;;;;;25.95;15.70;;;8.20;99.90;;;;;;5049614;28;20474;-71
2022/12/04 09:56:58;;;;;;;19.35;15.65;;;8.20;99.90;;;;;;5041472;28;20041;-69
2022/12/04 09:59:26;;;;;;;19.50;15.15;;;8.20;99.90;;;;;;5045166;28;20036;-69
2022/12/04 10:02:30;;;;;;;18.80;14.80;;;8.30;99.90;;;;;;5037248;28;20068;-69
2022/12/04 10:04:56;;;;;;;20.55;15.30;;;8.30;99.90;;;;;;5041051;28;20071;-67
2022/12/04 10:07:30;;;;;;;21.55;15.52;;;8.30;99.90;;;;;;5039073;28;20107;-69
2022/12/04 10:10:25;;;;;;;20.23;16.40;;;8.40;99.90;;;;;;5039751;28;20025;-70
2022/12/04 10:12:57;;;;;;;23.05;16.58;;;8.40;99.90;;;;;;5044758;28;20109;-69
2022/12/04 10:15:35;;;;;;;21.90;17.27;;;8.50;99.90;;;;;;5039959;28;20029;-70
2022/12/04 10:18:18;;;;;;;22.88;17.70;;;8.60;99.90;;;;;;5036686;28;20059;-70
2022/12/04 10:21:05;;;;;;;27.23;21.27;;;8.70;99.90;;;;;;5045086;28;20159;-70
2022/12/04 10:23:42;;;;;;;21.70;16.63;;;8.70;99.90;;;;;;5039536;28;20133;-70
2022/12/04 10:26:14;;;;;;;60.30;43.05;;;8.80;99.90;;;;;;5041058;28;20037;-70
2022/12/04 10:28:42;;;;;;;;;;;8.80;99.90;;;;;;5040742;28;20093;-69
2022/12/04 10:31:14;;;;;;;21.73;16.13;;;8.90;99.90;;;;;;5043862;28;19913;-69
2022/12/04 10:33:57;;;;;;;20.35;16.48;;;8.80;99.90;;;;;;5041408;28;20106;-69
2022/12/04 10:36:30;;;;;;;19.77;15.50;;;9.00;99.90;;;;;;5045199;28;20057;-70
2022/12/04 10:39:17;;;;;;;22.88;18.95;;;9.10;99.90;;;;;;5044020;28;20039;-70
2022/12/04 10:42:02;;;;;;;27.80;22.77;;;9.20;99.90;;;;;;5041601;28;20158;-69
2022/12/04 10:44:28;;;;;;;16.08;12.85;;;9.30;99.90;;;;;;5038820;28;20079;-69
2022/12/04 10:47:01;;;;;;;13.20;10.73;;;9.30;99.90;;;;;;5041642;28;20111;-70
2022/12/04 10:49:35;;;;;;;11.55;9.30;;;9.30;99.90;;;;;;5043256;28;20558;-70
2022/12/04 10:52:02;;;;;;;14.90;10.07;;;9.40;99.90;;;;;;5038385;28;20048;-70
2022/12/04 10:54:39;;;;;;;12.45;10.35;;;9.40;99.90;;;;;;5056127;28;20081;-70
2022/12/04 10:57:11;;;;;;;13.95;10.32;;;9.40;99.90;;;;;;5037899;28;20040;-70
2022/12/04 10:59:49;;;;;;;12.52;10.15;;;9.50;99.90;;;;;;5039417;28;20032;-70
2022/12/04 11:02:25;;;;;;;13.98;11.23;;;9.50;99.90;;;;;;5040608;28;20128;-70
2022/12/04 11:04:56;;;;;;;13.73;11.63;;;9.50;99.90;;;;;;5057129;28;20032;-70
2022/12/04 11:07:33;;;;;;;14.57;10.20;;;9.60;99.90;;;;;;5037560;28;20087;-70
2022/12/04 11:10:06;;;;;;;13.43;10.75;;;10.00;99.90;;;;;;5036703;28;20024;-69
2022/12/04 11:12:32;;;;;;;13.40;10.55;;;10.00;99.90;;;;;;5037587;28;20504;-69
2022/12/04 11:15:07;;;;;;;13.50;10.25;;;9.90;99.90;;;;;;5038971;28;20024;-69
2022/12/04 11:17:33;;;;;;;13.88;11.13;;;9.80;99.90;;;;;;5039903;28;20128;-69
2022/12/04 11:20:04;;;;;;;14.38;11.20;;;9.70;99.90;;;;;;5040764;28;20033;-69
2022/12/04 11:22:31;;;;;;;14.20;11.18;;;9.60;99.90;;;;;;5045374;28;20033;-69
2022/12/04 11:24:58;;;;;;;15.30;10.98;;;9.50;99.90;;;;;;5043673;28;20797;-69
2022/12/04 11:27:31;;;;;;;13.18;10.20;;;9.50;99.90;;;;;;5038129;28;20048;-69
2022/12/04 11:30:00;;;;;;;14.48;11.32;;;9.50;99.90;;;;;;5043262;28;20162;-70
2022/12/04 11:32:30;;;;;;;12.95;10.10;;;9.50;99.90;;;;;;5039470;28;20036;-70
2022/12/04 11:35:00;;;;;;;13.63;10.85;;;9.60;99.90;;;;;;5042617;28;20036;-70
2022/12/04 11:37:33;;;;;;;14.70;11.40;;;9.60;99.90;;;;;;5043906;28;20432;-70
2022/12/04 11:40:01;;;;;;;12.55;9.57;;;9.60;99.90;;;;;;5044842;28;20028;-69
2022/12/04 11:42:28;;;;;;;14.80;12.30;;;9.60;99.90;;;;;;5039845;28;20008;-70
2022/12/04 11:44:56;;;;;;;14.13;9.73;;;9.60;99.90;;;;;;5030025;28;20032;-68
2022/12/04 11:47:26;;;;;;;15.48;11.55;;;9.50;99.90;;;;;;5045375;28;20016;-68
2022/12/04 11:50:02;;;;;;;12.25;9.75;;;9.50;99.90;;;;;;5038811;28;20024;-69
2022/12/04 11:52:51;;;;;;;11.88;10.02;;;9.50;99.90;;;;;;5055216;28;20016;-68
2022/12/04 11:55:46;;;;;;;11.93;9.18;;;9.50;99.90;;;;;;5049804;28;20111;-69
2022/12/04 11:58:43;;;;;;;13.13;9.73;;;9.50;99.90;;;;;;5047230;28;20043;-70
2022/12/04 12:01:24;;;;;;;15.68;10.50;;;9.50;99.90;;;;;;5047004;28;20028;-70
2022/12/04 12:04:32;;;;;;;13.00;11.13;;;9.60;99.90;;;;;;5049614;28;20032;-69
2022/12/04 12:07:21;;;;;;;12.85;11.07;;;9.70;99.90;;;;;;5046764;28;20036;-70
2022/12/04 12:09:54;;;;;;;14.60;11.32;;;9.60;99.90;;;;;;5042770;28;20024;-70
2022/12/04 12:12:32;;;;;;;13.38;11.43;;;9.60;99.90;;;;;;5043860;28;20024;-70
2022/12/04 12:15:11;;;;;;;13.80;11.05;;;9.70;99.90;;;;;;5052681;28;20969;-69
2022/12/04 12:18:07;;;;;;;13.95;10.88;;;9.70;99.90;;;;;;5051927;28;20052;-69
2022/12/04 12:20:42;;;;;;;16.40;12.30;;;9.70;99.90;;;;;;5039957;28;20167;-69
2022/12/04 12:23:33;;;;;;;20.73;15.63;;;9.80;99.90;;;;;;5043089;28;20435;-69
2022/12/04 12:26:09;;;;;;;12.13;9.50;;;9.90;99.90;;;;;;5042967;28;20040;-68
2022/12/04 12:29:14;;;;;;;12.80;10.20;;;10.00;99.90;;;;;;5046980;28;20701;-68
2022/12/04 12:32:25;;;;;;;11.88;9.00;;;9.90;99.90;;;;;;5045894;28;20040;-69
2022/12/04 12:34:51;;;;;;;11.57;8.00;;;10.00;99.90;;;;;;5044031;28;20067;-69
2022/12/04 12:37:36;;;;;;;10.73;8.18;;;10.00;99.90;;;;;;5058279;28;20048;-69
2022/12/04 12:40:13;;;;;;;8.90;7.28;;;9.90;99.90;;;;;;5041993;28;20103;-68
2022/12/04 12:43:15;;;;;;;9.75;8.02;;;9.80;99.90;;;;;;5043051;28;20024;-69
2022/12/04 12:46:04;;;;;;;11.23;8.00;;;9.90;99.90;;;;;;5045140;28;20570;-69
2022/12/04 12:48:45;;;;;;;10.15;7.85;;;9.90;99.90;;;;;;5048646;28;20456;-68
2022/12/04 12:51:28;;;;;;;11.05;8.25;;;9.80;99.90;;;;;;5041063;28;20563;-68
2022/12/04 12:54:03;;;;;;;16.15;9.82;;;9.80;99.90;;;;;;5048414;28;20119;-68
2022/12/04 12:56:37;;;;;;;13.77;10.77;;;9.80;99.90;;;;;;5047182;28;20027;-68
2022/12/04 12:59:08;;;;;;;30.15;19.05;;;9.80;99.90;;;;;;5046962;28;20047;-69
2022/12/04 13:01:55;;;;;;;26.52;16.35;;;9.70;99.90;;;;;;5040899;28;20040;-69
2022/12/04 13:04:44;;;;;;;24.67;17.20;;;9.70;99.90;;;;;;5039902;28;20033;-70
2022/12/04 13:07:15;;;;;;;18.70;14.25;;;9.70;99.90;;;;;;5043330;28;20029;-69
2022/12/04 13:09:48;;;;;;;22.50;16.63;;;9.80;99.90;;;;;;5045231;28;20032;-68
2022/12/04 13:12:16;;;;;;;16.25;12.55;;;9.80;99.90;;;;;;5033686;28;20576;-69